Nashville, Tennessee
Traffic Map
Current Weather Conditions
Nashville, Tennessee
Broken Clouds
Broken Clouds
27°
Feels Like: 27°
Wind Chill: 27° Ceiling: 8000
Heat Index: 27° Visibility: 10mi
Dew Point: 15° Wind: 15mph
Humidity: 47% Direction: 330° (NNW)
Pressure: 29.99in Gusts: 21mph
Raw Report DataKBNA 282153Z 33013G18KT 10SM SCT055 BKN080 27/15 A2999 RMK AO2 SLP150 T02720150
Traffic Incident Summary
Active as of:
Severity:
Category:
InformationThere was an issue retrieving the traffic information for this location. Please try a different location or try again shortly.
Advertisements
Track Severe Weather on mobile